Time;durP1;ratioP1;P1;durP2;ratioP2;P2;SDS_P1;SDS_P2;PMS_P1;PMS_P2;Temp;Humidity;BMP_temperature;BMP_pressure;BME280_temperature;BME280_humidity;BME280_pressure;Samples;Min_cycle;Max_cycle;Signal;HPM_P1;HPM_P2
2022/07/12 00:00:09;;;;;;;4.75;3.53;;;16.20;99.90;;;;;;5118798;27;20065;-76
2022/07/12 00:02:38;;;;;;;5.55;3.92;;;16.20;99.90;;;;;;5118430;27;20099;-76
2022/07/12 00:05:06;;;;;;;4.45;2.90;;;16.20;99.90;;;;;;5099416;28;20154;-75
2022/07/12 00:07:33;;;;;;;7.25;3.95;;;16.20;99.90;;;;;;5098289;28;20113;-77
2022/07/12 00:09:59;;;;;;;3.75;2.95;;;16.20;99.90;;;;;;5110731;27;20066;-77
2022/07/12 00:12:26;;;;;;;4.88;2.90;;;16.10;99.90;;;;;;5118428;27;20100;-75
2022/07/12 00:14:54;;;;;;;5.80;4.20;;;16.10;99.90;;;;;;5137115;27;20043;-75
2022/07/12 00:17:21;;;;;;;4.07;2.67;;;16.10;99.90;;;;;;5136080;27;20043;-76
2022/07/12 00:19:49;;;;;;;4.65;3.50;;;16.10;99.90;;;;;;5136345;27;20580;-77
2022/07/12 00:22:16;;;;;;;4.82;3.22;;;16.10;99.90;;;;;;5118262;27;20047;-75
2022/07/12 00:24:43;;;;;;;4.47;2.95;;;16.10;99.90;;;;;;5119068;27;20374;-77
2022/07/12 00:27:11;;;;;;;4.60;3.13;;;16.00;99.90;;;;;;5117983;27;20055;-76
2022/07/12 00:29:38;;;;;;;4.00;2.90;;;16.00;99.90;;;;;;5136546;27;20047;-77
2022/07/12 00:32:05;;;;;;;4.43;2.58;;;16.10;99.90;;;;;;5116436;27;20395;-77
2022/07/12 00:34:32;;;;;;;3.72;2.92;;;16.10;99.90;;;;;;5118598;27;20163;-77
2022/07/12 00:37:00;;;;;;;3.55;2.67;;;16.00;99.90;;;;;;5136334;27;20059;-77
2022/07/12 00:39:27;;;;;;;3.92;2.83;;;16.00;99.90;;;;;;5136116;27;20058;-77
2022/07/12 00:41:54;;;;;;;4.40;2.40;;;16.00;99.90;;;;;;5118500;27;20054;-77
2022/07/12 00:44:21;;;;;;;4.57;3.20;;;16.00;99.90;;;;;;5117472;27;20406;-77
2022/07/12 00:46:48;;;;;;;3.78;2.80;;;16.00;99.90;;;;;;5117328;27;20043;-76
2022/07/12 00:49:16;;;;;;;3.63;2.58;;;16.00;99.90;;;;;;5137054;27;20047;-76
2022/07/12 00:51:44;;;;;;;4.22;2.80;;;15.90;99.90;;;;;;5103481;28;20052;-76
2022/07/12 00:54:15;;;;;;;3.35;2.50;;;15.90;99.90;;;;;;5105018;28;20567;-75
2022/07/12 00:56:42;;;;;;;4.28;3.00;;;15.90;99.90;;;;;;5107169;28;20117;-77
2022/07/12 00:59:09;;;;;;;3.95;3.00;;;15.90;99.90;;;;;;5129213;27;20060;-77
2022/07/12 01:01:37;;;;;;;3.47;2.45;;;15.80;99.90;;;;;;5117903;27;20104;-77
2022/07/12 01:04:05;;;;;;;3.63;2.78;;;15.90;99.90;;;;;;5117951;27;20078;-76
2022/07/12 01:06:33;;;;;;;3.42;2.50;;;15.90;99.90;;;;;;5136217;27;20096;-76
2022/07/12 01:09:00;;;;;;;3.30;2.42;;;15.90;99.90;;;;;;5117287;27;20491;-77
2022/07/12 01:11:29;;;;;;;3.83;2.85;;;15.80;99.90;;;;;;5117675;27;20445;-76
2022/07/12 01:13:57;;;;;;;4.20;2.78;;;15.90;99.90;;;;;;5136030;27;20428;-77
2022/07/12 01:16:25;;;;;;;3.33;2.33;;;15.80;99.90;;;;;;5116878;27;20510;-77
2022/07/12 01:18:52;;;;;;;3.95;2.65;;;15.90;99.90;;;;;;5117478;27;20051;-76
2022/07/12 01:21:23;;;;;;;3.38;2.38;;;15.90;99.90;;;;;;5135112;27;20059;-76
2022/07/12 01:23:52;;;;;;;3.03;2.28;;;15.90;99.90;;;;;;5135799;27;20111;-76
2022/07/12 01:26:19;;;;;;;3.58;2.72;;;15.90;99.90;;;;;;5116928;27;20066;-76
2022/07/12 01:28:47;;;;;;;3.35;2.40;;;15.90;99.90;;;;;;5106837;28;20055;-76
2022/07/12 01:31:14;;;;;;;3.58;2.75;;;15.90;99.90;;;;;;5115006;28;20108;-78
2022/07/12 01:33:41;;;;;;;3.78;2.80;;;15.90;99.90;;;;;;5114893;28;20392;-76
2022/07/12 01:36:08;;;;;;;4.65;2.85;;;15.90;99.90;;;;;;5096388;28;20048;-75
2022/07/12 01:38:35;;;;;;;3.58;2.83;;;15.90;99.90;;;;;;5096733;28;20055;-75
2022/07/12 01:41:03;;;;;;;6.53;3.40;;;15.80;99.90;;;;;;5096809;28;20567;-76
2022/07/12 01:43:31;;;;;;;5.45;4.00;;;15.90;99.90;;;;;;5114580;28;20056;-76
2022/07/12 01:45:58;;;;;;;3.97;3.05;;;15.80;99.90;;;;;;5099142;27;20065;-76
2022/07/12 01:48:24;;;;;;;5.53;3.60;;;15.80;99.90;;;;;;5122115;27;20047;-75
2022/07/12 01:50:51;;;;;;;4.50;3.22;;;15.80;99.90;;;;;;5116976;27;20055;-76
2022/07/12 01:53:18;;;;;;;6.25;3.50;;;15.80;99.90;;;;;;5121290;27;20100;-75
2022/07/12 01:55:46;;;;;;;4.32;3.22;;;15.80;99.90;;;;;;5142252;27;20054;-76
2022/07/12 01:58:16;;;;;;;12.90;4.35;;;15.70;99.90;;;;;;5103647;27;20051;-76
2022/07/12 02:00:50;;;;;;;4.00;3.30;;;15.80;99.90;;;;;;5134945;27;20070;-75
2022/07/12 02:03:17;;;;;;;4.45;3.13;;;15.70;99.90;;;;;;5116651;27;20090;-76
2022/07/12 02:05:44;;;;;;;5.03;3.63;;;15.90;99.90;;;;;;5135676;27;20047;-77
2022/07/12 02:08:12;;;;;;;4.90;4.05;;;15.70;99.90;;;;;;5116683;27;20051;-77
2022/07/12 02:10:39;;;;;;;4.93;3.60;;;15.70;99.90;;;;;;5133056;27;20805;-76
2022/07/12 02:13:07;;;;;;;5.07;3.72;;;15.70;99.90;;;;;;5129079;27;20399;-76
2022/07/12 02:15:35;;;;;;;6.05;3.75;;;15.60;99.90;;;;;;5114101;28;20047;-76
2022/07/12 02:18:02;;;;;;;4.40;3.35;;;15.60;99.90;;;;;;5097138;28;20048;-76
2022/07/12 02:20:29;;;;;;;6.78;3.90;;;15.60;99.90;;;;;;5101663;28;20393;-77
2022/07/12 02:22:56;;;;;;;5.15;4.38;;;15.60;99.90;;;;;;5099872;28;20116;-75
2022/07/12 02:25:23;;;;;;;5.18;4.30;;;15.60;99.90;;;;;;5116106;28;20060;-76
2022/07/12 02:27:50;;;;;;;5.68;4.13;;;15.60;99.90;;;;;;5119140;27;20051;-76
2022/07/12 02:30:17;;;;;;;5.65;4.13;;;15.50;99.90;;;;;;5115966;27;20422;-77
2022/07/12 02:32:45;;;;;;;5.25;4.20;;;15.50;99.90;;;;;;5133917;27;20554;-75
2022/07/12 02:35:12;;;;;;;5.45;4.07;;;15.50;99.90;;;;;;5116300;27;20051;-76
2022/07/12 02:37:39;;;;;;;6.05;5.10;;;15.50;99.90;;;;;;5125072;27;20047;-76
2022/07/12 02:42:52;;;;;;;6.53;4.75;;;15.40;99.90;;;;;;5095217;28;20058;-76
2022/07/12 02:45:19;;;;;;;6.32;5.20;;;15.30;99.90;;;;;;5113683;28;20503;-76
2022/07/12 02:47:47;;;;;;;7.93;4.78;;;15.30;99.90;;;;;;5113312;28;20043;-76
2022/07/12 02:50:14;;;;;;;7.75;5.13;;;15.30;99.90;;;;;;5096025;28;20063;-76
2022/07/12 02:52:41;;;;;;;6.60;4.28;;;15.20;99.90;;;;;;5113518;28;20058;-75
2022/07/12 02:55:09;;;;;;;6.15;4.90;;;15.20;99.90;;;;;;5096165;28;20491;-75
2022/07/12 02:57:35;;;;;;;11.02;5.07;;;15.20;99.90;;;;;;5095757;28;20100;-74
2022/07/12 03:00:02;;;;;;;6.15;5.00;;;15.20;99.90;;;;;;5095508;28;20100;-75
2022/07/12 03:02:29;;;;;;;6.75;5.32;;;15.20;99.90;;;;;;5113742;28;20117;-75
2022/07/12 03:04:58;;;;;;;8.93;5.57;;;15.20;99.90;;;;;;5095638;28;20047;-76
2022/07/12 03:07:25;;;;;;;7.10;5.65;;;15.10;99.90;;;;;;5121546;27;20490;-75
2022/07/12 03:09:52;;;;;;;9.52;6.10;;;15.10;99.90;;;;;;5120665;27;20055;-75
2022/07/12 03:12:19;;;;;;;7.18;5.65;;;15.20;99.90;;;;;;5120335;27;20521;-75
2022/07/12 03:14:46;;;;;;;35.05;6.85;;;15.10;99.90;;;;;;5120455;27;20047;-76
2022/07/12 03:17:13;;;;;;;38.75;8.25;;;15.20;99.90;;;;;;5138715;27;20050;-75
2022/07/12 03:19:40;;;;;;;9.15;6.47;;;15.10;99.90;;;;;;5138650;27;20069;-75
2022/07/12 03:22:08;;;;;;;17.45;7.45;;;15.00;99.90;;;;;;5113560;28;20055;-75
2022/07/12 03:24:35;;;;;;;10.55;7.38;;;15.10;99.90;;;;;;5099665;28;20088;-75
2022/07/12 03:27:01;;;;;;;9.63;6.43;;;15.00;99.90;;;;;;5115446;27;20092;-75
2022/07/12 03:29:28;;;;;;;11.27;6.40;;;15.00;99.90;;;;;;5119687;27;20100;-76
2022/07/12 03:31:55;;;;;;;14.65;8.13;;;15.00;99.90;;;;;;5119938;27;20051;-75
2022/07/12 03:34:22;;;;;;;66.38;11.27;;;15.10;99.90;;;;;;5119809;27;20058;-77
2022/07/12 03:36:49;;;;;;;32.67;10.25;;;15.10;99.90;;;;;;5101093;28;20096;-74
2022/07/12 03:39:17;;;;;;;11.98;8.55;;;15.10;99.90;;;;;;5116806;28;20051;-75
2022/07/12 03:41:44;;;;;;;14.48;8.77;;;15.00;99.90;;;;;;5099444;28;20377;-76
2022/07/12 03:44:11;;;;;;;40.38;10.90;;;15.00;99.90;;;;;;5098953;28;20044;-75
2022/07/12 03:46:38;;;;;;;82.80;13.75;;;15.10;99.90;;;;;;5099065;28;20054;-77
2022/07/12 03:49:05;;;;;;;66.03;9.88;;;15.00;99.90;;;;;;5099100;28;20055;-77
2022/07/12 03:51:32;;;;;;;66.72;10.40;;;15.00;99.90;;;;;;5106688;27;20052;-78
2022/07/12 03:53:58;;;;;;;15.05;5.43;;;15.10;99.90;;;;;;5107979;27;20046;-77
2022/07/12 03:59:11;;;;;;;48.88;7.22;;;15.30;99.90;;;;;;5116273;27;20100;-77
2022/07/12 04:01:38;;;;;;;18.88;5.50;;;15.40;99.90;;;;;;5097785;28;20051;-77
2022/07/12 04:04:05;;;;;;;73.95;8.80;;;15.30;99.90;;;;;;5108474;27;20422;-77
2022/07/12 04:06:32;;;;;;;68.40;8.38;;;15.40;99.90;;;;;;5103140;28;20043;-77
2022/07/12 04:08:59;;;;;;;66.15;7.95;;;15.40;99.90;;;;;;5115539;27;20051;-78
2022/07/12 04:11:27;;;;;;;57.85;6.88;;;15.50;99.90;;;;;;5096729;27;20063;-77
2022/07/12 04:13:54;;;;;;;69.65;7.20;;;15.40;99.90;;;;;;5101350;27;20055;-77
2022/07/12 04:16:21;;;;;;;82.00;8.73;;;15.40;99.90;;;;;;5137357;27;20043;-77
2022/07/12 04:18:47;;;;;;;74.32;8.00;;;15.50;99.90;;;;;;5119279;27;20117;-78
2022/07/12 04:21:14;;;;;;;74.90;7.82;;;15.50;99.90;;;;;;5133944;27;20055;-78
2022/07/12 04:23:41;;;;;;;118.15;10.15;;;15.50;99.90;;;;;;5133522;27;20039;-77
2022/07/12 04:26:08;;;;;;;65.35;7.70;;;15.50;99.90;;;;;;5128086;27;20043;-78
2022/07/12 04:28:37;;;;;;;21.42;6.22;;;15.50;99.90;;;;;;5130255;27;20043;-79
2022/07/12 04:31:04;;;;;;;49.35;7.25;;;15.50;99.90;;;;;;5132895;27;20390;-77
2022/07/12 04:33:31;;;;;;;65.43;7.25;;;15.60;99.90;;;;;;5111112;27;20111;-78
2022/07/12 04:35:58;;;;;;;76.28;8.55;;;15.60;99.90;;;;;;5130637;27;20040;-78
2022/07/12 04:38:25;;;;;;;54.38;8.27;;;15.70;99.90;;;;;;5110882;27;20087;-79
2022/07/12 04:40:52;;;;;;;63.58;7.35;;;15.60;99.90;;;;;;5114786;27;20047;-76
2022/07/12 04:43:19;;;;;;;61.33;9.73;;;15.60;99.90;;;;;;5117394;27;20050;-77
2022/07/12 04:45:47;;;;;;;84.68;10.18;;;15.40;99.90;;;;;;5105080;28;20051;-78
2022/07/12 04:48:14;;;;;;;71.68;8.23;;;15.30;99.90;;;;;;5106135;28;20108;-76
2022/07/12 04:50:41;;;;;;;30.90;6.18;;;15.30;99.90;;;;;;5096361;28;20082;-77
2022/07/12 04:53:08;;;;;;;47.13;6.50;;;15.30;99.90;;;;;;5114873;27;20051;-77
2022/07/12 04:55:34;;;;;;;9.63;4.75;;;15.30;99.90;;;;;;5097602;27;20057;-78
2022/07/12 04:58:04;;;;;;;51.00;6.45;;;15.20;99.90;;;;;;5105394;27;20062;-79
2022/07/12 05:00:31;;;;;;;19.52;5.25;;;15.20;99.90;;;;;;5114677;27;20051;-78
2022/07/12 05:02:59;;;;;;;6.38;5.10;;;15.20;99.90;;;;;;5100425;28;20048;-78
2022/07/12 05:05:26;;;;;;;30.15;6.45;;;15.20;99.90;;;;;;5119408;27;20142;-77
2022/07/12 05:07:53;;;;;;;13.65;4.10;;;15.20;99.90;;;;;;5110259;27;20039;-75
2022/07/12 05:10:20;;;;;;;8.98;4.28;;;15.20;99.90;;;;;;5110438;27;20048;-76
2022/07/12 05:12:47;;;;;;;6.05;4.15;;;15.20;99.90;;;;;;5107756;27;20043;-78
2022/07/12 05:15:14;;;;;;;11.98;4.03;;;15.40;99.90;;;;;;5111735;27;20047;-79
2022/07/12 05:17:41;;;;;;;39.15;6.35;;;15.30;99.90;;;;;;5115246;27;20035;-75
2022/07/12 05:20:10;;;;;;;28.08;5.45;;;15.30;99.90;;;;;;5114124;27;20487;-74
2022/07/12 05:22:37;;;;;;;17.90;5.00;;;15.40;99.90;;;;;;5133465;27;20406;-77
2022/07/12 05:25:05;;;;;;;5.78;4.47;;;15.40;99.90;;;;;;5114028;27;20055;-78
2022/07/12 05:27:32;;;;;;;7.30;4.10;;;15.50;99.90;;;;;;5123639;27;20507;-78
2022/07/12 05:29:59;;;;;;;16.83;5.32;;;15.50;99.90;;;;;;5114792;27;20058;-78
2022/07/12 05:32:25;;;;;;;7.30;4.63;;;15.60;99.90;;;;;;5132203;27;20047;-79
2022/07/12 05:34:52;;;;;;;14.68;5.78;;;15.70;99.90;;;;;;5126504;27;20099;-78
2022/07/12 05:37:23;;;;;;;7.90;5.15;;;15.70;99.90;;;;;;5126635;27;20047;-79
2022/07/12 05:39:50;;;;;;;7.22;4.90;;;15.90;99.90;;;;;;5114917;27;20555;-78
2022/07/12 05:42:17;;;;;;;6.93;4.97;;;15.90;99.90;;;;;;5114137;27;20062;-78
2022/07/12 05:44:44;;;;;;;6.60;4.78;;;16.00;99.90;;;;;;5127585;27;20062;-80
2022/07/12 05:47:11;;;;;;;5.75;4.30;;;16.10;99.90;;;;;;5109409;27;20089;-75
2022/07/12 05:49:37;;;;;;;6.38;4.75;;;16.10;99.90;;;;;;5127607;27;20068;-77
2022/07/12 05:54:51;;;;;;;7.65;4.35;;;16.20;99.90;;;;;;5126529;27;20050;-75
2022/07/12 05:57:19;;;;;;;6.40;4.10;;;16.20;99.90;;;;;;5130952;27;20047;-79
2022/07/12 05:59:46;;;;;;;6.28;3.55;;;16.40;99.90;;;;;;5112031;27;20075;-78
2022/07/12 06:02:13;;;;;;;5.45;3.85;;;16.40;99.90;;;;;;5114058;27;20051;-78
2022/07/12 06:04:40;;;;;;;4.95;3.47;;;16.50;99.90;;;;;;5111424;27;20048;-77
2022/07/12 06:07:07;;;;;;;4.35;3.30;;;16.60;99.90;;;;;;5112757;27;20047;-78
2022/07/12 06:09:34;;;;;;;5.75;4.13;;;16.60;99.90;;;;;;5111040;27;20581;-78
2022/07/12 06:12:02;;;;;;;5.90;3.88;;;16.80;99.90;;;;;;5128837;27;20066;-75
2022/07/12 06:14:29;;;;;;;7.00;4.20;;;16.80;99.90;;;;;;5111455;27;20039;-76
2022/07/12 06:16:56;;;;;;;4.80;3.78;;;16.90;99.90;;;;;;5113408;27;20058;-77
2022/07/12 06:19:25;;;;;;;4.85;3.45;;;17.00;99.90;;;;;;5114246;27;20050;-79
2022/07/12 06:21:52;;;;;;;6.25;3.83;;;17.00;99.90;;;;;;5128827;27;20049;-77
2022/07/12 06:24:18;;;;;;;5.57;4.00;;;17.10;99.90;;;;;;5129929;27;20047;-77
2022/07/12 06:26:45;;;;;;;6.30;3.92;;;17.10;99.90;;;;;;5126751;27;20042;-75
2022/07/12 06:29:14;;;;;;;5.30;3.95;;;17.20;99.90;;;;;;5122439;27;20047;-77
2022/07/12 06:31:41;;;;;;;4.65;3.50;;;17.40;99.90;;;;;;5114136;27;20130;-78
2022/07/12 06:34:07;;;;;;;6.32;4.30;;;17.50;99.90;;;;;;5140509;27;20079;-78
2022/07/12 06:36:34;;;;;;;5.35;3.90;;;17.70;99.90;;;;;;5142131;27;20051;-77
2022/07/12 06:39:01;;;;;;;6.18;3.50;;;17.80;99.90;;;;;;5136878;27;20051;-78
2022/07/12 06:41:29;;;;;;;5.35;3.22;;;18.10;99.90;;;;;;5115502;27;20051;-77
2022/07/12 06:43:56;;;;;;;4.32;3.58;;;18.20;99.90;;;;;;5116528;27;20043;-76
2022/07/12 06:46:24;;;;;;;4.90;3.40;;;18.40;99.90;;;;;;5133419;27;20059;-78
2022/07/12 06:48:51;;;;;;;4.50;3.53;;;18.50;99.90;;;;;;5134111;27;20047;-77
2022/07/12 06:51:17;;;;;;;5.28;3.17;;;18.70;99.90;;;;;;5114919;27;20047;-77
2022/07/12 06:53:44;;;;;;;3.72;2.80;;;18.80;99.90;;;;;;5121021;27;20133;-76
2022/07/12 06:56:11;;;;;;;5.25;3.55;;;19.00;99.90;;;;;;5115487;28;20443;-77
2022/07/12 06:58:38;;;;;;;6.03;2.92;;;19.30;99.90;;;;;;5115812;28;20043;-75
2022/07/12 07:01:05;;;;;;;5.00;2.80;;;19.60;99.90;;;;;;5133362;28;20085;-77
2022/07/12 07:03:33;;;;;;;5.55;3.17;;;19.90;99.90;;;;;;5133724;28;20050;-77
2022/07/12 07:06:00;;;;;;;4.60;3.13;;;20.20;99.90;;;;;;5110179;28;20076;-78
2022/07/12 07:08:27;;;;;;;6.10;2.85;;;20.80;99.90;;;;;;5095288;28;20051;-77
2022/07/12 07:10:54;;;;;;;3.90;2.78;;;21.20;99.90;;;;;;5094831;28;20047;-78
2022/07/12 07:13:21;;;;;;;5.88;3.17;;;21.50;99.90;;;;;;5092955;28;20418;-77
2022/07/12 07:15:48;;;;;;;7.15;2.60;;;21.90;99.90;;;;;;5095305;28;20441;-77
2022/07/12 07:18:15;;;;;;;3.75;2.53;;;22.10;99.90;;;;;;5094783;28;20051;-78
2022/07/12 07:20:43;;;;;;;4.05;2.20;;;22.50;99.90;;;;;;5098181;28;20423;-77
2022/07/12 07:23:14;;;;;;;3.22;2.45;;;23.10;99.90;;;;;;5115582;28;20399;-78
2022/07/12 07:25:41;;;;;;;4.47;2.08;;;23.30;99.90;;;;;;5115632;28;20536;-79
2022/07/12 07:28:07;;;;;;;3.53;1.98;;;23.70;99.90;;;;;;5115686;28;20062;-79
2022/07/12 07:33:18;;;;;;;2.70;2.08;;;24.10;99.90;;;;;;5115599;28;20040;-78
2022/07/12 07:35:47;;;;;;;3.25;2.20;;;23.80;99.90;;;;;;5113160;28;20054;-77
2022/07/12 07:38:14;;;;;;;2.53;1.63;;;24.10;99.90;;;;;;5114772;28;20452;-77
2022/07/12 07:40:41;;;;;;;4.50;1.70;;;24.20;99.90;;;;;;5133588;28;20551;-78
2022/07/12 07:43:08;;;;;;;3.85;1.90;;;24.40;99.90;;;;;;5114766;28;20055;-77
2022/07/12 07:45:35;;;;;;;5.53;1.88;;;24.40;99.90;;;;;;5133055;28;20506;-78
2022/07/12 07:48:02;;;;;;;2.70;1.83;;;24.40;99.90;;;;;;5133617;28;20111;-77
2022/07/12 07:50:29;;;;;;;2.90;1.90;;;24.60;99.90;;;;;;5114941;28;20551;-77
2022/07/12 07:52:57;;;;;;;3.15;1.67;;;24.80;99.90;;;;;;5133553;27;20103;-77
2022/07/12 07:55:25;;;;;;;2.40;1.63;;;25.00;99.90;;;;;;5136333;27;20074;-77
2022/07/12 07:57:51;;;;;;;3.55;1.70;;;25.20;99.90;;;;;;5137351;27;20402;-77
2022/07/12 08:00:18;;;;;;;4.53;2.00;;;25.30;99.90;;;;;;5137497;27;20105;-77
2022/07/12 08:02:45;;;;;;;2.85;1.70;;;25.30;99.90;;;;;;5118514;27;20055;-78
2022/07/12 08:05:12;;;;;;;2.50;1.77;;;25.30;99.90;;;;;;5101072;28;20096;-77
2022/07/12 08:07:39;;;;;;;2.35;1.63;;;25.40;99.90;;;;;;5116845;28;20043;-78
2022/07/12 08:10:08;;;;;;;2.20;1.50;;;25.60;99.90;;;;;;5106649;27;20055;-78
2022/07/12 08:12:35;;;;;;;3.47;1.98;;;25.90;99.90;;;;;;5136891;27;20047;-77
2022/07/12 08:15:02;;;;;;;3.30;1.92;;;26.00;99.90;;;;;;5136633;27;20047;-77
2022/07/12 08:17:29;;;;;;;2.10;1.50;;;25.90;99.90;;;;;;5117888;27;20547;-76
2022/07/12 08:19:56;;;;;;;2.63;1.60;;;25.80;99.90;;;;;;5118725;27;20384;-79
2022/07/12 08:22:23;;;;;;;3.20;1.38;;;26.00;99.90;;;;;;5119300;27;20048;-79
2022/07/12 08:24:50;;;;;;;3.92;1.98;;;26.00;99.90;;;;;;5117964;27;20051;-79
2022/07/12 08:27:18;;;;;;;4.30;1.80;;;25.90;99.90;;;;;;5120588;27;20111;-79
2022/07/12 08:29:45;;;;;;;3.45;1.95;;;25.90;99.90;;;;;;5121954;27;20115;-79
2022/07/12 08:32:12;;;;;;;4.82;1.65;;;25.70;99.90;;;;;;5118617;27;20096;-75
2022/07/12 08:34:39;;;;;;;4.05;1.80;;;25.70;99.90;;;;;;5107050;27;20051;-79
2022/07/12 08:37:06;;;;;;;5.22;2.28;;;25.80;99.90;;;;;;5097567;27;20104;-79
2022/07/12 08:39:33;;;;;;;3.35;1.77;;;25.80;99.90;;;;;;5116184;27;20488;-79
2022/07/12 08:42:00;;;;;;;2.88;1.70;;;25.90;99.90;;;;;;5114725;28;20047;-78
2022/07/12 08:44:28;;;;;;;2.60;1.80;;;25.80;99.90;;;;;;5106229;27;20046;-78
2022/07/12 08:46:55;;;;;;;2.42;1.83;;;25.90;99.90;;;;;;5127304;27;20449;-77
2022/07/12 08:49:22;;;;;;;2.47;1.63;;;26.00;99.90;;;;;;5116824;27;20059;-78
2022/07/12 08:51:49;;;;;;;3.90;1.85;;;26.10;99.90;;;;;;5115993;27;20051;-78
2022/07/12 08:54:17;;;;;;;3.72;2.05;;;26.20;99.90;;;;;;5118710;27;20053;-78
2022/07/12 08:56:45;;;;;;;2.88;1.60;;;26.40;99.90;;;;;;5125425;27;20057;-77
2022/07/12 08:59:17;;;;;;;2.28;1.50;;;26.70;99.90;;;;;;5121662;28;20090;-78
2022/07/12 09:01:49;;;;;;;2.85;1.65;;;26.90;99.90;;;;;;5109425;27;20058;-78
2022/07/12 09:04:18;;;;;;;4.20;1.50;;;27.30;99.90;;;;;;5134903;27;20089;-78
2022/07/12 09:06:45;;;;;;;3.10;1.60;;;27.40;99.90;;;;;;5117293;27;20130;-77
2022/07/12 09:09:25;;;;;;;3.72;1.70;;;27.70;99.90;;;;;;5096847;28;20043;-78
2022/07/12 09:11:52;;;;;;;2.67;1.70;;;27.60;99.90;;;;;;5100265;28;20108;-78
2022/07/12 09:14:20;;;;;;;3.38;1.75;;;27.70;99.90;;;;;;5111251;27;20135;-78
2022/07/12 09:16:59;;;;;;;2.58;1.92;;;27.50;99.90;;;;;;5128895;27;20068;-81
2022/07/12 09:19:26;;;;;;;4.72;2.17;;;27.60;99.90;;;;;;5117016;27;20070;-80
2022/07/12 09:21:54;;;;;;;3.20;2.00;;;27.80;99.90;;;;;;5118100;27;20047;-79
2022/07/12 09:24:25;;;;;;;3.22;1.90;;;28.00;99.90;;;;;;5110512;27;20054;-79
2022/07/12 09:26:54;;;;;;;5.40;1.92;;;28.10;99.70;;;;;;5115725;27;20552;-78
2022/07/12 09:29:21;;;;;;;3.78;2.33;;;27.90;99.70;;;;;;5124205;27;20499;-80
2022/07/12 09:37:22;;;;;;;5.05;2.00;;;27.40;99.50;;;;;;5113511;27;20050;-79
2022/07/12 09:39:51;;;;;;;3.58;1.77;;;27.20;99.90;;;;;;5096525;28;20105;-80
2022/07/12 09:42:19;;;;;;;5.65;2.33;;;27.30;99.90;;;;;;5107193;28;20124;-80
2022/07/12 09:44:46;;;;;;;3.38;2.10;;;27.50;99.90;;;;;;5126616;27;20055;-79
2022/07/12 09:47:15;;;;;;;2.83;1.85;;;27.80;99.70;;;;;;5114421;28;20096;-79
2022/07/12 09:49:44;;;;;;;3.03;1.60;;;28.30;99.20;;;;;;5098078;27;20094;-76
2022/07/12 09:52:12;;;;;;;4.38;1.80;;;28.70;98.70;;;;;;5114557;27;20517;-79
2022/07/12 09:54:43;;;;;;;3.60;1.95;;;29.10;98.40;;;;;;5111828;27;20052;-79
2022/07/12 09:57:20;;;;;;;4.50;1.88;;;29.40;97.90;;;;;;5101508;27;20048;-79
2022/07/12 09:59:48;;;;;;;2.33;1.67;;;30.10;96.40;;;;;;5115648;27;20047;-78
2022/07/12 10:02:17;;;;;;;2.30;1.52;;;30.10;96.20;;;;;;5105740;28;20083;-79
2022/07/12 10:04:47;;;;;;;3.13;2.00;;;30.40;95.70;;;;;;5097961;27;20454;-80
2022/07/12 10:07:16;;;;;;;3.00;1.70;;;30.30;95.00;;;;;;5095035;27;20054;-79
2022/07/12 10:09:45;;;;;;;2.47;1.35;;;30.40;94.40;;;;;;5099323;28;20047;-81
2022/07/12 10:12:15;;;;;;;1.57;1.17;;;30.60;94.20;;;;;;5130613;27;20055;-82
2022/07/12 10:14:43;;;;;;;2.20;1.45;;;30.40;92.90;;;;;;5133169;27;20633;-80
2022/07/12 10:17:11;;;;;;;3.45;1.60;;;30.70;93.40;;;;;;5110311;28;20055;-80
2022/07/12 10:19:40;;;;;;;1.95;1.20;;;31.20;92.90;;;;;;5097176;28;20116;-81
2022/07/12 10:22:19;;;;;;;1.80;1.02;;;31.40;91.20;;;;;;5125620;27;20051;-79
2022/07/12 10:24:47;;;;;;;2.00;1.00;;;31.40;91.10;;;;;;5122714;27;20077;-79
2022/07/12 10:27:31;;;;;;;3.65;1.38;;;31.40;90.70;;;;;;5110017;28;20118;-80
2022/07/12 10:30:19;;;;;;;3.13;1.10;;;31.50;88.70;;;;;;5095149;28;20059;-80
2022/07/12 10:32:48;;;;;;;2.50;1.10;;;31.60;87.50;;;;;;5096756;28;20131;-81
2022/07/12 10:35:18;;;;;;;2.63;1.30;;;31.70;88.60;;;;;;5097538;27;20564;-77
2022/07/12 10:38:21;;;;;;;3.35;1.10;;;31.80;87.80;;;;;;5099705;28;20396;-80
2022/07/12 10:40:50;;;;;;;3.33;0.80;;;31.80;87.40;;;;;;5131374;27;20088;-80
2022/07/12 10:43:22;;;;;;;2.40;0.80;;;32.00;87.30;;;;;;5126409;27;20054;-76
2022/07/12 10:45:50;;;;;;;1.85;1.00;;;32.10;85.90;;;;;;5114282;27;20135;-77
2022/07/12 10:48:23;;;;;;;1.80;0.90;;;32.20;84.30;;;;;;5095945;28;20070;-78
2022/07/12 10:50:58;;;;;;;1.60;0.93;;;32.20;81.50;;;;;;5102799;28;20137;-76
2022/07/12 10:53:27;;;;;;;1.80;0.90;;;32.30;80.10;;;;;;5100473;28;20055;-79
2022/07/12 10:56:14;;;;;;;1.83;0.90;;;32.20;82.20;;;;;;5112023;28;20043;-78
2022/07/12 10:58:43;;;;;;;1.98;1.08;;;32.00;81.50;;;;;;5132543;28;20487;-75
2022/07/12 11:01:12;;;;;;;1.92;1.05;;;32.10;82.80;;;;;;5113572;28;20055;-78
2022/07/12 11:03:40;;;;;;;3.63;1.10;;;32.30;83.70;;;;;;5128651;28;20065;-78
2022/07/12 11:06:10;;;;;;;2.10;1.00;;;32.00;82.70;;;;;;5104697;28;20075;-77
2022/07/12 11:08:50;;;;;;;2.28;1.20;;;31.90;82.90;;;;;;5122960;28;20438;-79
2022/07/12 11:11:17;;;;;;;2.58;1.00;;;31.60;81.60;;;;;;5134329;28;20400;-80
2022/07/12 11:13:44;;;;;;;1.30;0.50;;;31.40;82.40;;;;;;5108862;28;20059;-79
2022/07/12 11:16:11;;;;;;;2.67;0.80;;;31.20;80.90;;;;;;5109075;28;20066;-80
2022/07/12 11:18:39;;;;;;;1.35;0.70;;;31.20;81.00;;;;;;5096841;28;20040;-79
2022/07/12 11:21:06;;;;;;;3.78;0.93;;;31.10;80.80;;;;;;5111514;28;20444;-79
2022/07/12 11:23:35;;;;;;;1.67;0.70;;;31.00;80.70;;;;;;5114956;28;20108;-80
2022/07/12 11:26:03;;;;;;;3.55;0.98;;;31.10;81.10;;;;;;5110805;28;20139;-79
2022/07/12 11:28:31;;;;;;;1.45;0.88;;;31.40;81.00;;;;;;5118228;28;20043;-80
2022/07/12 11:31:04;;;;;;;4.97;0.90;;;31.20;81.00;;;;;;5097653;27;20055;-79
2022/07/12 11:33:32;;;;;;;2.90;1.20;;;31.40;79.80;;;;;;5118161;27;20061;-80
2022/07/12 11:36:01;;;;;;;1.57;0.77;;;31.20;80.10;;;;;;5124408;27;20502;-80
2022/07/12 11:38:29;;;;;;;2.90;0.75;;;31.50;80.20;;;;;;5115915;28;20051;-80
2022/07/12 11:40:58;;;;;;;1.42;0.57;;;31.90;79.90;;;;;;5129919;27;20051;-79
2022/07/12 11:43:25;;;;;;;2.75;1.10;;;32.30;78.60;;;;;;5114156;28;20054;-79
2022/07/12 11:45:53;;;;;;;3.88;0.60;;;32.30;77.40;;;;;;5120503;27;20527;-80
2022/07/12 11:48:20;;;;;;;1.77;0.65;;;32.30;76.40;;;;;;5103933;27;20486;-80
2022/07/12 11:50:49;;;;;;;1.23;0.70;;;32.40;76.00;;;;;;5134559;27;20051;-80
2022/07/12 11:53:17;;;;;;;3.78;1.00;;;32.60;76.10;;;;;;5101609;28;20048;-80
2022/07/12 11:55:45;;;;;;;2.78;0.73;;;32.80;75.80;;;;;;5110588;27;20506;-80
2022/07/12 11:58:14;;;;;;;3.58;1.00;;;32.80;75.00;;;;;;5101847;28;20047;-79
2022/07/12 12:00:41;;;;;;;2.17;0.70;;;32.70;74.90;;;;;;5124834;27;20100;-79
2022/07/12 12:03:08;;;;;;;6.88;0.98;;;32.60;75.00;;;;;;5110892;28;20060;-80
2022/07/12 12:05:36;;;;;;;1.23;0.60;;;32.70;75.40;;;;;;5122278;27;20050;-81
2022/07/12 12:08:04;;;;;;;3.00;0.70;;;32.80;75.30;;;;;;5115762;27;20127;-79
2022/07/12 12:10:31;;;;;;;2.25;0.73;;;33.10;74.90;;;;;;5135114;27;20088;-80
2022/07/12 12:13:00;;;;;;;2.38;0.70;;;33.40;73.70;;;;;;5132169;27;20404;-79
2022/07/12 12:15:31;;;;;;;1.92;0.60;;;33.70;73.60;;;;;;5136579;27;20051;-81
2022/07/12 12:17:59;;;;;;;1.45;0.60;;;33.90;72.50;;;;;;5098712;28;20219;-79
2022/07/12 12:20:27;;;;;;;3.95;0.77;;;33.70;72.50;;;;;;5117177;28;20568;-79
2022/07/12 12:22:56;;;;;;;1.48;0.57;;;33.60;71.80;;;;;;5098361;28;20051;-77
2022/07/12 12:25:23;;;;;;;4.00;0.70;;;33.40;70.50;;;;;;5098955;28;20493;-80
2022/07/12 12:27:55;;;;;;;2.13;0.93;;;33.50;71.00;;;;;;5116839;28;20469;-79
2022/07/12 12:30:22;;;;;;;1.50;0.70;;;33.50;71.20;;;;;;5112526;27;20051;-80
2022/07/12 12:32:54;;;;;;;3.17;1.00;;;33.40;71.40;;;;;;5121503;27;20475;-79
2022/07/12 12:35:23;;;;;;;2.55;0.90;;;33.50;71.50;;;;;;5107406;27;20506;-79
2022/07/12 12:37:52;;;;;;;3.63;0.90;;;34.00;72.30;;;;;;5118228;27;20493;-79
2022/07/12 12:40:27;;;;;;;2.05;1.17;;;33.90;71.50;;;;;;5135341;27;20312;-78
2022/07/12 12:43:06;;;;;;;1.90;1.05;;;33.50;71.80;;;;;;5117901;27;20073;-80
2022/07/12 12:45:33;;;;;;;2.80;1.00;;;33.30;71.70;;;;;;5135881;27;20138;-79
2022/07/12 12:48:03;;;;;;;1.85;0.88;;;33.50;71.70;;;;;;5117734;27;20054;-79
2022/07/12 12:50:52;;;;;;;2.10;1.08;;;33.40;72.00;;;;;;5136562;27;20047;-80
2022/07/12 12:53:20;;;;;;;2.50;1.40;;;33.70;72.10;;;;;;5110276;28;20452;-79
2022/07/12 12:55:51;;;;;;;3.92;1.55;;;33.60;72.00;;;;;;5115907;28;20445;-80
2022/07/12 12:58:19;;;;;;;3.55;1.33;;;33.30;72.40;;;;;;5097761;28;20051;-79
2022/07/12 13:00:48;;;;;;;3.80;1.45;;;33.30;72.00;;;;;;5115795;28;20131;-79
2022/07/12 13:03:18;;;;;;;2.10;1.17;;;33.30;72.40;;;;;;5098187;28;20047;-80
2022/07/12 13:05:46;;;;;;;5.50;1.65;;;33.50;72.50;;;;;;5115446;28;20060;-80